Time;durP1;ratioP1;P1;durP2;ratioP2;P2;SDS_P1;SDS_P2;PMS_P1;PMS_P2;Temp;Humidity;BMP_temperature;BMP_pressure;BME280_temperature;BME280_humidity;BME280_pressure;Samples;Min_cycle;Max_cycle;Signal;HPM_P1;HPM_P2
2022/11/29 00:01:28;;;;;;;94.82;17.85;;;7.90;99.90;;;;;;5032714;28;20045;-59
2022/11/29 00:03:54;;;;;;;79.53;17.33;;;8.40;99.90;;;;;;5032620;28;20045;-58
2022/11/29 00:06:29;;;;;;;75.63;19.05;;;7.80;99.90;;;;;;5032761;28;20079;-59
2022/11/29 00:08:57;;;;;;;82.28;18.70;;;8.30;99.90;;;;;;5014852;28;20034;-59
2022/11/29 00:14:13;;;;;;;103.25;19.25;;;7.70;99.90;;;;;;5014802;28;20103;-59
2022/11/29 00:16:39;;;;;;;69.43;17.17;;;7.80;99.90;;;;;;5032663;28;20040;-59
2022/11/29 00:19:06;;;;;;;136.82;18.70;;;8.10;99.90;;;;;;4982272;28;20459;-60
2022/11/29 00:21:32;;;;;;;70.28;16.88;;;7.70;99.90;;;;;;5032552;28;20041;-59
2022/11/29 00:23:58;;;;;;;143.20;19.23;;;7.80;99.90;;;;;;5032360;28;20119;-58
2022/11/29 00:26:24;;;;;;;156.85;20.17;;;7.70;99.90;;;;;;5032196;28;20122;-59
2022/11/29 00:28:50;;;;;;;166.10;20.08;;;8.40;99.90;;;;;;5032411;28;20394;-59
2022/11/29 00:31:16;;;;;;;77.43;16.23;;;8.30;99.90;;;;;;5032367;28;20098;-59
2022/11/29 00:33:42;;;;;;;87.50;17.02;;;7.60;99.90;;;;;;5032326;28;20475;-59
2022/11/29 00:36:08;;;;;;;84.32;17.35;;;7.90;99.90;;;;;;5032210;28;20038;-60
2022/11/29 00:38:33;;;;;;;54.00;15.85;;;7.70;99.90;;;;;;5032324;28;20052;-59
2022/11/29 00:40:59;;;;;;;84.93;17.35;;;7.70;99.90;;;;;;5032465;28;20041;-60
2022/11/29 00:43:24;;;;;;;117.03;16.88;;;7.60;99.90;;;;;;5036174;28;20041;-59
2022/11/29 00:45:50;;;;;;;117.07;16.23;;;7.90;99.90;;;;;;5039639;28;20432;-59
2022/11/29 00:48:16;;;;;;;73.38;16.95;;;8.20;99.90;;;;;;5034638;28;20044;-59
2022/11/29 00:50:41;;;;;;;70.88;16.73;;;8.10;99.90;;;;;;5032726;28;20053;-60
2022/11/29 00:53:07;;;;;;;71.25;15.88;;;7.90;99.90;;;;;;5032112;28;20433;-59
2022/11/29 00:55:33;;;;;;;77.85;17.27;;;7.70;99.90;;;;;;5032071;28;20401;-59
2022/11/29 00:57:58;;;;;;;74.32;16.42;;;8.20;99.90;;;;;;5049563;28;20045;-60
2022/11/29 01:00:24;;;;;;;65.95;17.85;;;7.70;99.90;;;;;;5034017;28;20068;-59
2022/11/29 01:02:49;;;;;;;128.30;18.05;;;7.60;99.90;;;;;;5051904;28;20037;-59
2022/11/29 01:05:15;;;;;;;56.20;16.10;;;8.20;99.90;;;;;;5051891;28;20070;-60
2022/11/29 01:07:41;;;;;;;106.63;18.33;;;8.00;99.90;;;;;;5051973;28;20118;-58
2022/11/29 01:10:07;;;;;;;65.57;16.80;;;8.00;99.90;;;;;;5051776;28;20495;-60
2022/11/29 01:12:37;;;;;;;74.90;17.70;;;7.60;99.90;;;;;;5051848;28;20033;-59
2022/11/29 01:15:07;;;;;;;67.53;16.73;;;7.60;99.90;;;;;;5034030;28;20121;-60
2022/11/29 01:17:37;;;;;;;89.35;18.23;;;8.20;99.90;;;;;;5034041;28;20064;-60
2022/11/29 01:20:05;;;;;;;74.25;18.52;;;7.80;99.90;;;;;;5033935;28;20114;-60
2022/11/29 01:22:30;;;;;;;122.78;19.35;;;8.10;99.90;;;;;;5051742;28;20047;-59
2022/11/29 01:24:56;;;;;;;70.28;17.88;;;8.20;99.90;;;;;;5033896;28;20485;-59
2022/11/29 01:27:22;;;;;;;150.55;20.50;;;7.50;99.90;;;;;;5051723;28;20504;-60
2022/11/29 01:29:47;;;;;;;108.30;18.95;;;7.90;99.90;;;;;;5051836;28;20041;-59
2022/11/29 01:32:13;;;;;;;128.73;20.60;;;7.50;99.90;;;;;;5051616;28;20477;-59
2022/11/29 01:34:39;;;;;;;85.28;18.17;;;8.10;99.90;;;;;;5051817;28;20123;-59
2022/11/29 01:37:04;;;;;;;115.97;19.67;;;8.10;99.90;;;;;;5051729;28;20041;-58
2022/11/29 01:39:30;;;;;;;77.85;17.10;;;7.40;99.90;;;;;;5051531;28;20045;-59
2022/11/29 01:41:56;;;;;;;128.02;21.10;;;7.50;99.90;;;;;;5051318;28;20045;-59
2022/11/29 01:44:21;;;;;;;58.05;18.40;;;7.70;99.90;;;;;;5051675;28;20144;-60
2022/11/29 01:46:48;;;;;;;47.88;17.15;;;7.40;99.90;;;;;;5051629;28;20386;-60
2022/11/29 01:49:26;;;;;;;107.20;19.10;;;8.00;99.90;;;;;;5051383;28;20103;-59
2022/11/29 01:52:03;;;;;;;112.22;17.67;;;7.30;99.90;;;;;;5052642;28;20041;-59
2022/11/29 01:54:31;;;;;;;53.03;17.83;;;7.80;99.90;;;;;;5054933;28;20511;-59
2022/11/29 01:56:58;;;;;;;74.15;17.95;;;7.60;99.90;;;;;;5045969;28;20044;-60
2022/11/29 01:59:27;;;;;;;72.28;16.65;;;7.30;99.90;;;;;;5034986;28;20104;-58
2022/11/29 02:02:02;;;;;;;57.13;16.80;;;7.40;99.90;;;;;;5035154;28;20045;-60
2022/11/29 02:04:34;;;;;;;87.22;18.00;;;7.50;99.90;;;;;;5017329;28;20049;-60
2022/11/29 02:07:00;;;;;;;48.15;16.00;;;7.50;99.90;;;;;;5035268;28;20556;-58
2022/11/29 02:09:26;;;;;;;57.65;16.00;;;7.20;99.90;;;;;;5034970;28;20132;-60
2022/11/29 02:12:13;;;;;;;63.08;15.80;;;7.60;99.90;;;;;;5034762;28;20464;-59
2022/11/29 02:14:50;;;;;;;63.28;16.48;;;7.70;99.90;;;;;;5034840;28;20045;-59
2022/11/29 02:17:54;;;;;;;76.63;16.75;;;7.20;99.90;;;;;;5034556;28;20047;-58
2022/11/29 02:20:53;;;;;;;51.90;16.48;;;7.30;99.90;;;;;;5034556;28;20045;-57
2022/11/29 02:23:57;;;;;;;130.15;16.48;;;7.30;99.90;;;;;;5034638;28;20052;-59
2022/11/29 02:27:00;;;;;;;64.68;16.58;;;7.10;99.90;;;;;;5034670;28;20052;-60
2022/11/29 02:29:53;;;;;;;111.57;17.48;;;7.60;99.90;;;;;;5016657;28;20387;-60
2022/11/29 02:32:51;;;;;;;57.95;16.00;;;7.00;99.90;;;;;;5034718;28;20048;-59
2022/11/29 02:35:54;;;;;;;76.97;16.65;;;7.10;99.90;;;;;;4979361;28;20080;-58
2022/11/29 02:38:40;;;;;;;43.30;15.82;;;7.50;99.90;;;;;;5034315;28;20053;-59
2022/11/29 02:41:36;;;;;;;47.42;15.52;;;7.10;99.90;;;;;;5034380;28;20405;-60
2022/11/29 02:44:10;;;;;;;68.13;16.13;;;7.60;99.90;;;;;;5034319;28;20115;-59
2022/11/29 02:47:02;;;;;;;51.17;17.67;;;7.30;99.90;;;;;;5034139;28;20132;-59
2022/11/29 02:49:46;;;;;;;58.33;15.77;;;7.60;99.90;;;;;;5033982;28;20041;-59
2022/11/29 02:52:31;;;;;;;63.42;16.17;;;7.10;99.90;;;;;;5033940;28;20049;-58
2022/11/29 02:55:11;;;;;;;37.42;15.80;;;7.10;99.90;;;;;;5016461;28;20120;-59
2022/11/29 02:57:54;;;;;;;38.47;14.93;;;7.50;99.90;;;;;;5049004;28;20515;-59
2022/11/29 03:00:20;;;;;;;;;;;7.50;99.90;;;;;;5054159;28;20068;-57
2022/11/29 03:03:05;;;;;;;32.92;13.63;;;7.10;99.90;;;;;;5053179;28;20046;-58
2022/11/29 03:06:16;;;;;;;35.80;15.20;;;7.60;99.90;;;;;;5053658;28;20076;-59
2022/11/29 03:09:06;;;;;;;28.90;13.57;;;7.50;99.90;;;;;;5009390;28;20137;-59
2022/11/29 03:11:54;;;;;;;36.13;16.30;;;7.40;99.90;;;;;;5053679;28;20417;-57
2022/11/29 03:14:24;;;;;;;30.52;15.30;;;7.30;99.90;;;;;;5053682;28;20102;-59
2022/11/29 03:17:15;;;;;;;29.05;14.98;;;7.10;99.90;;;;;;5053630;28;20478;-59
2022/11/29 03:19:59;;;;;;;32.38;15.50;;;7.00;99.90;;;;;;5053540;28;20045;-45
2022/11/29 03:22:54;;;;;;;32.45;14.90;;;7.50;99.90;;;;;;5053249;28;20082;-48
2022/11/29 03:25:32;;;;;;;32.13;15.13;;;7.60;99.90;;;;;;5053337;28;20056;-45
2022/11/29 03:28:09;;;;;;;35.17;15.48;;;7.50;99.90;;;;;;5053212;28;20116;-47
2022/11/29 03:30:39;;;;;;;30.10;15.93;;;7.40;99.90;;;;;;5053480;28;20076;-48
2022/11/29 03:33:25;;;;;;;32.70;16.05;;;7.60;99.90;;;;;;5053327;28;20047;-46
2022/11/29 03:36:12;;;;;;;36.28;14.90;;;7.60;99.90;;;;;;5053088;28;20068;-45
2022/11/29 03:38:44;;;;;;;40.85;15.93;;;7.60;99.90;;;;;;5053021;28;20053;-47
2022/11/29 03:41:42;;;;;;;33.63;16.87;;;7.10;99.90;;;;;;5053284;28;20033;-46
2022/11/29 03:44:23;;;;;;;32.83;14.88;;;7.30;99.90;;;;;;5053118;28;20056;-47
2022/11/29 03:47:11;;;;;;;30.55;14.90;;;7.10;99.90;;;;;;5053021;28;20401;-45
2022/11/29 03:49:43;;;;;;;30.13;14.63;;;7.60;99.90;;;;;;5052996;28;20099;-46
2022/11/29 03:52:18;;;;;;;28.98;15.27;;;7.40;99.90;;;;;;5052784;28;20489;-45
2022/11/29 03:55:09;;;;;;;29.38;14.77;;;7.40;99.90;;;;;;5035214;28;20037;-51
2022/11/29 03:58:03;;;;;;;32.50;14.90;;;7.30;99.90;;;;;;5037957;28;20033;-46
2022/11/29 04:00:51;;;;;;;30.55;14.38;;;7.40;99.90;;;;;;5032830;28;20045;-44
2022/11/29 04:04:10;;;;;;;30.63;14.30;;;7.60;99.90;;;;;;4999948;28;20383;-47
2022/11/29 04:06:58;;;;;;;30.85;15.38;;;7.30;99.90;;;;;;5009022;28;20046;-47
2022/11/29 04:09:55;;;;;;;33.72;14.18;;;7.10;99.90;;;;;;5032543;28;20049;-44
2022/11/29 04:12:59;;;;;;;30.42;14.60;;;7.10;99.90;;;;;;5032531;28;20049;-44
2022/11/29 04:15:49;;;;;;;31.58;14.23;;;7.20;99.90;;;;;;5032251;28;20033;-45
2022/11/29 04:18:34;;;;;;;30.02;14.20;;;7.30;99.90;;;;;;5032342;28;20049;-48
2022/11/29 04:21:18;;;;;;;28.65;13.73;;;6.90;99.90;;;;;;5032499;28;20489;-46
2022/11/29 04:24:08;;;;;;;33.60;14.07;;;7.40;99.90;;;;;;5032404;28;20045;-46
2022/11/29 04:27:00;;;;;;;42.90;14.68;;;7.30;99.90;;;;;;5032486;28;20034;-46
2022/11/29 04:29:47;;;;;;;39.42;12.95;;;7.20;99.90;;;;;;5032474;28;20132;-45
2022/11/29 04:32:19;;;;;;;26.90;12.40;;;6.80;99.90;;;;;;5032151;28;20437;-49
2022/11/29 04:35:00;;;;;;;28.37;12.43;;;6.90;99.90;;;;;;5032192;28;20038;-46
2022/11/29 04:37:48;;;;;;;37.63;13.45;;;6.80;99.90;;;;;;5032023;28;20326;-46
2022/11/29 04:40:35;;;;;;;26.90;11.63;;;7.20;99.90;;;;;;5032210;28;20045;-46
2022/11/29 04:43:12;;;;;;;35.78;12.20;;;7.20;99.90;;;;;;5032180;28;20413;-47
2022/11/29 04:46:12;;;;;;;23.58;11.52;;;6.70;99.90;;;;;;5032174;28;20095;-47
2022/11/29 04:49:05;;;;;;;32.40;12.93;;;7.10;99.90;;;;;;5032065;28;20119;-46
2022/11/29 04:51:54;;;;;;;;;;;6.60;99.90;;;;;;5032580;28;20111;-46
2022/11/29 04:54:36;;;;;;;28.55;11.23;;;6.60;99.90;;;;;;5032060;28;19943;-46
2022/11/29 04:57:31;;;;;;;28.85;11.43;;;7.10;99.90;;;;;;5024084;28;20048;-45
2022/11/29 05:00:05;;;;;;;26.13;12.57;;;6.60;99.90;;;;;;5017571;28;20072;-47
2022/11/29 05:02:53;;;;;;;29.17;13.35;;;7.00;99.90;;;;;;5051874;28;20045;-47
2022/11/29 05:05:43;;;;;;;23.92;12.05;;;7.00;99.90;;;;;;5052155;28;20037;-45
2022/11/29 05:08:22;;;;;;;26.65;11.90;;;6.70;99.90;;;;;;5017387;28;20037;-44
2022/11/29 05:10:58;;;;;;;26.20;12.10;;;6.80;99.90;;;;;;5051929;28;20115;-45
2022/11/29 05:13:27;;;;;;;28.85;12.23;;;6.70;99.90;;;;;;5051524;28;20041;-46
2022/11/29 05:16:39;;;;;;;22.73;12.45;;;6.80;99.90;;;;;;5051815;28;20098;-48
2022/11/29 05:19:10;;;;;;;22.27;12.30;;;7.10;99.90;;;;;;4970525;28;20059;-46
2022/11/29 05:22:18;;;;;;;24.75;11.55;;;6.70;99.90;;;;;;5038022;28;20052;-50
2022/11/29 05:25:07;;;;;;;21.65;11.00;;;6.50;99.90;;;;;;5051638;28;20489;-47
2022/11/29 05:27:44;;;;;;;21.83;11.88;;;6.80;99.90;;;;;;4999417;28;20088;-46
2022/11/29 05:30:19;;;;;;;21.15;11.57;;;6.80;99.90;;;;;;5055601;28;20049;-50
2022/11/29 05:33:11;;;;;;;24.50;11.13;;;6.90;99.90;;;;;;5055367;28;20045;-47
2022/11/29 05:36:02;;;;;;;22.65;10.57;;;6.70;99.90;;;;;;5055646;28;20045;-48
2022/11/29 05:38:50;;;;;;;19.88;11.00;;;6.80;99.90;;;;;;5055464;28;20393;-46
2022/11/29 05:41:18;;;;;;;21.80;11.68;;;6.90;99.90;;;;;;5055418;28;20099;-50
2022/11/29 05:43:53;;;;;;;20.88;11.70;;;6.60;99.90;;;;;;5055305;28;20044;-47
2022/11/29 05:46:25;;;;;;;24.55;12.13;;;6.90;99.90;;;;;;5055319;28;20041;-48
2022/11/29 05:49:03;;;;;;;;;;;6.90;99.90;;;;;;5055791;28;20497;-46
2022/11/29 05:51:53;;;;;;;23.70;11.98;;;6.60;99.90;;;;;;5055302;28;19916;-48
2022/11/29 05:54:29;;;;;;;23.98;10.90;;;7.00;99.90;;;;;;5055245;28;20037;-45
2022/11/29 05:57:25;;;;;;;22.35;11.40;;;7.00;99.90;;;;;;5045815;28;20152;-46
2022/11/29 05:59:52;;;;;;;19.63;11.02;;;6.90;99.90;;;;;;5034895;28;20053;-45
2022/11/29 06:02:41;;;;;;;21.38;11.57;;;7.00;99.90;;;;;;5035054;28;20049;-45
2022/11/29 06:05:27;;;;;;;18.77;10.40;;;7.00;99.90;;;;;;5034883;28;20573;-44
2022/11/29 06:08:06;;;;;;;20.08;10.43;;;6.50;99.90;;;;;;5034899;28;20401;-44
2022/11/29 06:10:36;;;;;;;20.98;11.02;;;6.50;99.90;;;;;;5034866;28;20042;-45
2022/11/29 06:13:12;;;;;;;20.90;11.25;;;6.70;99.90;;;;;;5034916;28;20505;-46
2022/11/29 06:15:47;;;;;;;21.67;10.25;;;6.60;99.90;;;;;;5034912;28;20045;-46
2022/11/29 06:18:37;;;;;;;25.27;13.55;;;7.00;99.90;;;;;;5034670;28;20114;-46
2022/11/29 06:21:11;;;;;;;22.35;10.82;;;7.00;99.90;;;;;;5034609;28;20061;-44
2022/11/29 06:24:31;;;;;;;18.60;11.25;;;6.50;99.90;;;;;;5034807;28;20145;-44
2022/11/29 06:27:21;;;;;;;19.05;10.30;;;6.50;99.90;;;;;;5034408;28;20526;-46
2022/11/29 06:30:12;;;;;;;22.90;11.05;;;7.00;99.90;;;;;;5034315;28;20485;-46
2022/11/29 06:32:53;;;;;;;19.80;10.77;;;6.70;99.90;;;;;;5034456;28;20052;-46
2022/11/29 06:35:39;;;;;;;25.48;11.65;;;6.60;99.90;;;;;;5034422;28;20069;-48
2022/11/29 06:38:22;;;;;;;21.10;11.45;;;7.00;99.90;;;;;;5034026;28;20502;-45
2022/11/29 06:40:49;;;;;;;20.67;11.48;;;6.60;99.90;;;;;;5034525;28;20045;-46
2022/11/29 06:43:15;;;;;;;22.02;11.63;;;7.00;99.90;;;;;;5034444;28;20457;-45
2022/11/29 06:45:47;;;;;;;21.35;11.30;;;7.00;99.90;;;;;;5034326;28;20114;-45
2022/11/29 06:48:24;;;;;;;26.05;12.00;;;6.90;99.90;;;;;;5033959;28;20070;-45
2022/11/29 06:50:52;;;;;;;22.92;10.65;;;7.10;99.90;;;;;;5034476;28;20041;-48
2022/11/29 06:53:27;;;;;;;23.63;11.80;;;7.20;99.90;;;;;;5034115;28;20050;-45
2022/11/29 06:56:30;;;;;;;24.60;11.70;;;6.90;99.90;;;;;;5034581;28;20453;-47
2022/11/29 06:59:12;;;;;;;21.98;12.20;;;7.00;99.90;;;;;;5053734;28;20559;-47
2022/11/29 07:02:00;;;;;;;29.75;12.32;;;6.90;99.90;;;;;;5053863;28;20124;-45
2022/11/29 07:05:00;;;;;;;22.25;11.13;;;7.20;99.90;;;;;;5053782;28;20116;-48
2022/11/29 07:07:26;;;;;;;26.17;11.05;;;6.90;99.90;;;;;;4972660;28;20042;-49
2022/11/29 07:09:59;;;;;;;25.27;9.70;;;7.40;99.90;;;;;;5036707;28;20468;-45
2022/11/29 07:12:25;;;;;;;;;;;7.00;99.90;;;;;;5054165;28;20474;-44
2022/11/29 07:14:51;;;;;;;22.98;10.20;;;7.40;99.90;;;;;;5035782;28;19959;-47
2022/11/29 07:17:38;;;;;;;19.67;9.85;;;6.90;99.90;;;;;;5035723;28;20378;-45
2022/11/29 07:20:15;;;;;;;27.30;10.70;;;7.10;99.90;;;;;;5053343;28;20628;-44
2022/11/29 07:22:49;;;;;;;23.67;10.55;;;7.00;99.90;;;;;;5035596;28;20049;-45
2022/11/29 07:25:31;;;;;;;23.73;9.45;;;7.20;99.90;;;;;;5053391;28;20041;-44
2022/11/29 07:28:04;;;;;;;23.67;9.88;;;6.90;99.90;;;;;;5053167;28;20123;-45
2022/11/29 07:30:45;;;;;;;20.08;9.65;;;7.10;99.90;;;;;;5053272;28;20040;-45
2022/11/29 07:33:40;;;;;;;27.55;10.60;;;6.70;99.90;;;;;;5053323;28;20041;-46
2022/11/29 07:36:17;;;;;;;22.83;9.68;;;6.70;99.90;;;;;;5053072;28;20053;-46
2022/11/29 07:39:00;;;;;;;23.92;9.80;;;6.70;99.90;;;;;;5053361;28;20530;-49
2022/11/29 07:41:37;;;;;;;20.60;9.82;;;6.90;99.90;;;;;;5052996;28;20045;-44
2022/11/29 07:44:45;;;;;;;21.23;9.20;;;6.70;99.90;;;;;;5053057;28;20462;-49
2022/11/29 07:47:11;;;;;;;21.05;9.23;;;7.10;99.90;;;;;;5042716;28;20437;-46
2022/11/29 07:49:37;;;;;;;22.58;10.05;;;7.10;99.90;;;;;;5052327;28;20099;-49
2022/11/29 07:52:03;;;;;;;22.55;9.65;;;6.80;99.90;;;;;;5052910;28;20045;-46
2022/11/29 07:54:29;;;;;;;19.17;9.60;;;6.80;99.90;;;;;;5052848;28;20032;-48
2022/11/29 07:56:55;;;;;;;16.92;10.48;;;6.80;99.90;;;;;;5043762;28;20041;-47
2022/11/29 07:59:20;;;;;;;20.48;8.32;;;7.20;99.90;;;;;;5033207;28;20048;-45
2022/11/29 08:01:46;;;;;;;18.23;7.85;;;7.10;99.90;;;;;;4998852;28;20045;-45
2022/11/29 08:04:12;;;;;;;17.98;8.25;;;6.80;99.90;;;;;;5032943;28;20128;-45
2022/11/29 08:06:38;;;;;;;21.65;8.88;;;7.00;99.90;;;;;;5032860;28;20042;-45
2022/11/29 08:09:06;;;;;;;18.33;9.25;;;7.10;99.90;;;;;;5014997;28;20041;-46
2022/11/29 08:11:32;;;;;;;21.20;9.45;;;6.80;99.90;;;;;;5014854;28;20044;-46
2022/11/29 08:14:00;;;;;;;17.67;9.88;;;6.90;99.90;;;;;;5032596;28;20509;-45
2022/11/29 08:16:25;;;;;;;21.15;8.93;;;7.00;99.90;;;;;;5015105;28;20676;-49
2022/11/29 08:18:51;;;;;;;21.13;9.40;;;6.70;99.90;;;;;;5032318;28;20144;-45
2022/11/29 08:21:17;;;;;;;18.58;8.80;;;6.80;99.90;;;;;;5032505;28;20041;-45
2022/11/29 08:23:46;;;;;;;24.77;9.38;;;6.60;99.90;;;;;;5032391;28;20042;-46
2022/11/29 08:26:13;;;;;;;19.25;9.10;;;6.70;99.90;;;;;;5032351;28;20030;-44
2022/11/29 08:28:39;;;;;;;19.50;9.18;;;7.10;99.90;;;;;;5032137;28;20045;-46
2022/11/29 08:31:07;;;;;;;21.45;8.98;;;6.80;99.90;;;;;;5032488;28;20091;-44
2022/11/29 08:33:38;;;;;;;18.35;8.38;;;6.70;99.90;;;;;;5032286;28;20034;-45
2022/11/29 08:36:09;;;;;;;17.60;8.63;;;6.80;99.90;;;;;;4998236;28;20033;-44
2022/11/29 08:38:35;;;;;;;19.58;9.15;;;6.70;99.90;;;;;;5032254;28;20045;-45
2022/11/29 08:41:06;;;;;;;27.98;9.18;;;7.10;99.90;;;;;;5032236;28;20068;-45
2022/11/29 08:43:31;;;;;;;20.05;9.38;;;6.70;99.90;;;;;;5014457;28;20049;-44
2022/11/29 08:45:58;;;;;;;22.15;9.50;;;7.00;99.90;;;;;;5032126;28;20095;-48
2022/11/29 08:48:24;;;;;;;19.17;8.02;;;6.70;99.90;;;;;;5032057;28;20043;-46
2022/11/29 08:50:51;;;;;;;20.95;9.30;;;7.10;99.90;;;;;;5031971;28;20037;-44
2022/11/29 08:56:01;;;;;;;18.40;8.13;;;7.10;99.90;;;;;;5034101;28;20504;-45
2022/11/29 08:58:27;;;;;;;18.25;8.77;;;6.60;99.90;;;;;;5051765;28;20041;-44
2022/11/29 09:00:53;;;;;;;22.95;9.05;;;6.60;99.90;;;;;;5053357;28;20047;-45
2022/11/29 09:06:10;;;;;;;20.15;8.32;;;6.70;99.90;;;;;;5056211;28;20045;-45
2022/11/29 09:08:36;;;;;;;25.33;8.85;;;7.00;99.90;;;;;;5055851;28;20045;-45
2022/11/29 09:11:32;;;;;;;21.95;8.02;;;7.10;99.90;;;;;;5055843;28;20068;-44
2022/11/29 09:14:00;;;;;;;19.35;7.57;;;6.90;99.90;;;;;;5039019;28;20459;-49
2022/11/29 09:16:29;;;;;;;24.38;8.65;;;7.20;99.90;;;;;;5038099;28;20044;-45
2022/11/29 09:18:55;;;;;;;22.25;9.90;;;7.40;99.90;;;;;;5037832;28;20057;-44
2022/11/29 09:21:25;;;;;;;24.27;8.73;;;6.90;99.90;;;;;;5055574;28;20532;-45
2022/11/29 09:23:58;;;;;;;17.88;8.27;;;7.00;99.90;;;;;;5055801;28;20440;-44
2022/11/29 09:26:28;;;;;;;16.90;7.35;;;7.50;99.90;;;;;;5037783;28;20048;-45
2022/11/29 09:28:53;;;;;;;22.67;8.38;;;7.30;99.90;;;;;;5055428;28;20116;-44
2022/11/29 09:31:20;;;;;;;20.90;7.82;;;7.30;99.90;;;;;;5055746;28;20108;-50
2022/11/29 09:33:46;;;;;;;21.33;8.13;;;7.50;99.90;;;;;;5055539;28;20044;-49
2022/11/29 09:36:12;;;;;;;27.67;9.57;;;7.40;99.90;;;;;;5055713;28;20040;-50
2022/11/29 09:38:38;;;;;;;20.95;9.07;;;7.60;99.90;;;;;;5037476;28;20112;-46
2022/11/29 09:41:30;;;;;;;21.77;8.82;;;7.80;99.90;;;;;;5055410;28;20489;-46
2022/11/29 09:44:18;;;;;;;22.85;8.48;;;7.60;99.90;;;;;;5055363;28;20128;-44
2022/11/29 09:47:20;;;;;;;22.73;8.70;;;7.90;99.90;;;;;;5037310;28;20048;-47
2022/11/29 09:50:06;;;;;;;18.47;7.47;;;7.70;99.90;;;;;;5055433;28;20045;-47
2022/11/29 09:52:58;;;;;;;18.63;7.07;;;8.40;99.90;;;;;;5055081;28;20072;-48
2022/11/29 09:55:52;;;;;;;25.47;7.77;;;8.40;99.90;;;;;;5055173;28;20044;-50
2022/11/29 09:58:22;;;;;;;19.90;7.88;;;8.00;99.90;;;;;;5035248;28;20091;-44
2022/11/29 10:00:50;;;;;;;23.98;7.55;;;8.30;99.90;;;;;;5034968;28;20049;-44
2022/11/29 10:03:32;;;;;;;25.00;8.70;;;8.80;99.90;;;;;;5034919;28;20116;-45
2022/11/29 10:06:11;;;;;;;19.92;6.97;;;8.30;99.90;;;;;;5034992;28;20084;-49
2022/11/29 10:08:46;;;;;;;28.10;8.55;;;9.10;99.90;;;;;;5034914;28;20141;-47
2022/11/29 10:11:21;;;;;;;26.10;7.43;;;8.50;99.90;;;;;;5034932;28;20037;-53
2022/11/29 10:13:56;;;;;;;21.30;6.88;;;8.40;99.90;;;;;;5016478;28;20437;-45
2022/11/29 10:16:50;;;;;;;23.77;7.57;;;8.60;99.90;;;;;;5034775;28;20392;-46
2022/11/29 10:19:24;;;;;;;28.70;8.52;;;8.70;99.90;;;;;;5034502;28;20593;-44
2022/11/29 10:22:10;;;;;;;22.25;7.65;;;8.60;99.90;;;;;;5034853;28;20068;-46
2022/11/29 10:24:37;;;;;;;24.00;7.80;;;8.70;99.90;;;;;;5020812;28;20132;-46
2022/11/29 10:27:19;;;;;;;19.17;7.35;;;9.30;99.90;;;;;;5034733;28;20045;-46
2022/11/29 10:29:49;;;;;;;24.88;7.97;;;8.70;99.90;;;;;;5034430;28;20045;-47
2022/11/29 10:32:16;;;;;;;23.30;9.30;;;9.60;99.90;;;;;;5016878;28;20037;-47
2022/11/29 10:34:42;;;;;;;23.35;9.30;;;9.60;99.90;;;;;;5034442;28;20037;-48
2022/11/29 10:37:20;;;;;;;20.50;9.57;;;9.60;99.90;;;;;;5016730;28;20048;-46
2022/11/29 10:39:57;;;;;;;23.77;10.23;;;9.00;99.90;;;;;;5034352;28;20116;-45
2022/11/29 10:45:44;;;;;;;25.88;11.70;;;9.60;99.90;;;;;;5034268;28;20060;-45
2022/11/29 10:48:31;;;;;;;27.02;11.93;;;9.40;99.90;;;;;;5034235;28;20037;-46
2022/11/29 10:50:58;;;;;;;23.10;12.40;;;9.10;99.90;;;;;;5034256;28;20037;-45
2022/11/29 10:53:31;;;;;;;26.40;13.30;;;8.80;99.90;;;;;;5034191;28;20421;-45
2022/11/29 10:56:12;;;;;;;27.48;12.10;;;9.20;99.90;;;;;;5017378;28;20171;-44
2022/11/29 10:58:53;;;;;;;24.17;12.73;;;9.10;99.90;;;;;;5054242;28;20371;-48
2022/11/29 11:01:19;;;;;;;24.80;13.10;;;9.70;99.90;;;;;;5054006;28;20279;-46
2022/11/29 11:03:53;;;;;;;27.33;13.43;;;9.40;99.90;;;;;;5053829;28;20045;-44
2022/11/29 11:06:21;;;;;;;29.10;13.65;;;9.20;99.90;;;;;;5053774;28;20049;-46
2022/11/29 11:09:13;;;;;;;26.33;13.73;;;9.30;99.90;;;;;;5053620;28;20049;-47
2022/11/29 11:11:39;;;;;;;31.37;13.60;;;9.10;99.90;;;;;;5035976;28;20044;-46
2022/11/29 11:14:23;;;;;;;26.00;13.38;;;9.50;99.90;;;;;;5035658;28;20044;-45
2022/11/29 11:16:49;;;;;;;22.70;12.45;;;9.80;99.90;;;;;;5053590;28;20037;-45
2022/11/29 11:19:24;;;;;;;23.50;12.40;;;9.70;99.90;;;;;;5053449;28;20055;-45
2022/11/29 11:21:50;;;;;;;25.77;12.63;;;9.60;99.90;;;;;;5019190;28;20076;-48
2022/11/29 11:24:25;;;;;;;22.15;12.57;;;9.50;99.90;;;;;;5052324;28;20494;-46
2022/11/29 11:26:51;;;;;;;24.88;12.13;;;9.20;99.90;;;;;;5053433;28;20405;-46
2022/11/29 11:29:22;;;;;;;26.85;12.43;;;9.70;99.90;;;;;;5053608;28;20056;-44
2022/11/29 11:31:56;;;;;;;21.73;10.80;;;9.20;99.90;;;;;;5035449;28;20623;-46
2022/11/29 11:34:34;;;;;;;21.85;11.77;;;9.30;99.90;;;;;;5053194;28;20493;-48
2022/11/29 11:37:25;;;;;;;22.83;10.75;;;9.70;99.90;;;;;;5053188;28;20493;-48
2022/11/29 11:39:54;;;;;;;17.65;10.57;;;9.70;99.90;;;;;;5035120;28;20049;-46
2022/11/29 11:42:40;;;;;;;21.85;12.20;;;9.60;99.90;;;;;;5053189;28;20120;-47
2022/11/29 11:45:11;;;;;;;18.90;11.00;;;9.60;99.90;;;;;;5053067;28;20108;-48
2022/11/29 11:47:49;;;;;;;20.90;10.95;;;9.20;99.90;;;;;;5053199;28;20115;-47
2022/11/29 11:50:26;;;;;;;21.55;10.20;;;9.60;99.90;;;;;;5034883;28;20371;-47
2022/11/29 11:52:55;;;;;;;19.90;10.45;;;9.70;99.90;;;;;;5052783;28;20564;-46
2022/11/29 11:55:20;;;;;;;19.00;10.07;;;9.30;99.90;;;;;;5052719;28;20518;-46
2022/11/29 11:58:13;;;;;;;18.42;9.40;;;9.30;99.90;;;;;;5036479;28;20073;-50
2022/11/29 12:00:46;;;;;;;;;;;9.50;99.90;;;;;;5033197;28;20033;-48
2022/11/29 12:03:53;;;;;;;17.63;9.13;;;9.60;99.90;;;;;;5032834;28;19924;-48
2022/11/29 12:06:18;;;;;;;16.92;8.93;;;9.80;99.90;;;;;;5032703;28;20052;-45
2022/11/29 12:08:46;;;;;;;15.98;8.82;;;9.40;99.90;;;;;;5014874;28;20041;-46
2022/11/29 12:11:16;;;;;;;21.45;10.15;;;9.70;99.90;;;;;;5015142;28;20151;-49
2022/11/29 12:13:47;;;;;;;15.10;8.43;;;9.40;99.90;;;;;;5032764;28;20400;-46
2022/11/29 12:16:27;;;;;;;13.88;7.68;;;9.30;99.90;;;;;;5032444;28;20044;-46
2022/11/29 12:19:09;;;;;;;15.55;8.50;;;9.30;99.90;;;;;;5032481;28;20387;-47
2022/11/29 12:21:40;;;;;;;15.05;7.15;;;9.60;99.90;;;;;;5032512;28;20486;-46
2022/11/29 12:24:31;;;;;;;12.43;7.18;;;9.60;99.90;;;;;;5032591;28;20045;-48
2022/11/29 12:27:02;;;;;;;13.23;8.50;;;9.30;99.90;;;;;;5032514;28;20347;-47
2022/11/29 12:29:32;;;;;;;12.77;7.15;;;9.40;99.90;;;;;;5032023;28;20045;-46
2022/11/29 12:32:43;;;;;;;14.30;7.50;;;9.20;99.90;;;;;;5032674;28;20055;-46
2022/11/29 12:35:22;;;;;;;9.38;6.13;;;9.50;99.90;;;;;;5014421;28;20037;-48
2022/11/29 12:38:03;;;;;;;11.30;6.85;;;9.10;99.90;;;;;;5032297;28;20056;-48
2022/11/29 12:40:45;;;;;;;9.27;5.72;;;9.40;99.90;;;;;;5015870;28;20120;-49
2022/11/29 12:43:16;;;;;;;10.43;6.80;;;9.20;99.90;;;;;;5032284;28;20049;-48
2022/11/29 12:46:19;;;;;;;11.73;6.97;;;9.10;99.90;;;;;;5032226;28;20338;-46
2022/11/29 12:49:00;;;;;;;11.93;7.97;;;9.30;99.90;;;;;;4991201;28;20053;-49
2022/11/29 12:51:36;;;;;;;12.25;7.85;;;9.40;99.90;;;;;;5032055;28;20402;-47
2022/11/29 12:54:14;;;;;;;13.20;8.13;;;9.20;99.90;;;;;;5032216;28;20076;-45
2022/11/29 12:57:00;;;;;;;14.20;9.32;;;9.10;99.90;;;;;;5039061;28;20044;-46
2022/11/29 13:00:03;;;;;;;14.95;8.63;;;9.30;99.90;;;;;;5051827;28;20076;-48
2022/11/29 13:02:43;;;;;;;14.48;9.02;;;9.30;99.90;;;;;;5052193;28;20044;-46
2022/11/29 13:05:21;;;;;;;13.50;9.32;;;9.10;99.90;;;;;;5051802;28;20134;-46
2022/11/29 13:07:59;;;;;;;14.38;9.23;;;9.10;99.90;;;;;;5051909;28;20481;-46
2022/11/29 13:10:53;;;;;;;13.38;9.00;;;9.10;99.90;;;;;;5051827;28;20120;-50
2022/11/29 13:13:35;;;;;;;15.25;9.57;;;9.10;99.90;;;;;;5051621;28;20041;-44
2022/11/29 13:16:29;;;;;;;13.48;9.75;;;9.10;99.90;;;;;;5051879;28;20047;-49
2022/11/29 13:19:10;;;;;;;20.17;11.00;;;9.00;99.90;;;;;;5051633;28;20061;-44
2022/11/29 13:21:50;;;;;;;16.95;10.55;;;8.90;99.90;;;;;;5033775;28;20132;-48
2022/11/29 13:24:29;;;;;;;13.38;9.05;;;9.00;99.90;;;;;;5051842;28;20132;-58
2022/11/29 13:26:56;;;;;;;14.63;10.50;;;8.70;99.90;;;;;;5051398;28;20401;-48
2022/11/29 13:29:22;;;;;;;13.48;9.30;;;9.00;99.90;;;;;;5033773;28;20135;-45
2022/11/29 13:31:50;;;;;;;14.88;10.15;;;8.70;99.90;;;;;;5051711;28;20041;-46
2022/11/29 13:34:20;;;;;;;16.85;10.57;;;8.90;99.90;;;;;;5051538;28;20052;-51
2022/11/29 13:37:09;;;;;;;15.10;10.75;;;8.70;99.90;;;;;;5033948;28;20449;-48
2022/11/29 13:39:58;;;;;;;14.68;9.77;;;8.90;99.90;;;;;;5051393;28;20052;-46
2022/11/29 13:42:23;;;;;;;14.85;9.90;;;8.70;99.90;;;;;;5051142;28;20037;-48
2022/11/29 13:45:19;;;;;;;13.45;9.40;;;8.80;99.90;;;;;;5051393;28;20170;-46